Terminal Aerodrome Forecast
Issued by NWS

Home | Current Version | Previous Version | Text Only | Print | Product List | Glossary On
Versions: 1 2 3 4 5 6 7 8 9 10 11 12 13
000
FTUS45 KABQ 292331
TAFROW
TAF
KROW 292331Z 3000/3024 27014G22KT P6SM BKN120
     FM300300 26009KT P6SM SCT120
     FM300900 32008KT P6SM FEW120
     FM301900 17010KT P6SM SCT120=

USA.gov is the U.S. government's official web portal to all federal, state and local government web resources and services.